Time;durP1;ratioP1;P1;durP2;ratioP2;P2;SDS_P1;SDS_P2;PMS_P1;PMS_P2;Temp;Humidity;BMP_temperature;BMP_pressure;BME280_temperature;BME280_humidity;BME280_pressure;Samples;Min_cycle;Max_cycle;Signal;HPM_P1;HPM_P2
2023/03/26 00:01:15;;;;;;;5.40;1.23;;;9.90;99.90;;;;;;5041475;28;20032;-68
2023/03/26 00:03:43;;;;;;;1.35;0.90;;;10.00;99.90;;;;;;5040732;28;20048;-68
2023/03/26 00:06:12;;;;;;;3.67;1.30;;;10.00;99.90;;;;;;5043378;28;20829;-68
2023/03/26 00:08:40;;;;;;;3.03;1.00;;;10.10;99.90;;;;;;5035804;28;20864;-68
2023/03/26 00:11:08;;;;;;;1.33;0.90;;;10.10;99.90;;;;;;5039212;28;20049;-64
2023/03/26 00:13:34;;;;;;;2.45;1.10;;;10.20;99.90;;;;;;5036534;28;20025;-65
2023/03/26 00:16:00;;;;;;;5.25;1.45;;;10.20;99.90;;;;;;5032840;28;20032;-65
2023/03/26 00:18:30;;;;;;;3.90;0.93;;;10.20;99.90;;;;;;5033934;28;20029;-66
2023/03/26 00:20:57;;;;;;;2.13;1.00;;;10.30;99.90;;;;;;5037888;28;20457;-67
2023/03/26 00:23:24;;;;;;;2.08;1.20;;;10.30;99.90;;;;;;5031894;28;20036;-65
2023/03/26 00:25:50;;;;;;;1.88;1.13;;;10.20;99.90;;;;;;5038003;28;20037;-65
2023/03/26 00:28:20;;;;;;;2.15;1.13;;;10.20;99.90;;;;;;5035648;28;20033;-65
2023/03/26 00:30:47;;;;;;;2.72;1.13;;;10.10;99.90;;;;;;5038907;28;20033;-65
2023/03/26 00:33:16;;;;;;;2.78;1.10;;;10.00;99.90;;;;;;5036826;28;20045;-65
2023/03/26 00:35:45;;;;;;;2.00;1.00;;;10.00;99.90;;;;;;5037325;28;20111;-65
2023/03/26 00:38:13;;;;;;;2.47;0.90;;;10.00;99.90;;;;;;5040109;28;20036;-65
2023/03/26 00:40:42;;;;;;;2.42;1.10;;;9.90;99.90;;;;;;5041172;28;20032;-65
2023/03/26 00:43:17;;;;;;;3.45;1.27;;;9.90;99.90;;;;;;5032133;28;20069;-65
2023/03/26 00:45:52;;;;;;;1.50;1.20;;;10.00;99.90;;;;;;5043366;28;20068;-65
2023/03/26 00:48:19;;;;;;;2.90;1.47;;;10.00;99.90;;;;;;5041173;28;20053;-65
2023/03/26 00:50:47;;;;;;;4.88;1.30;;;10.00;99.90;;;;;;5048651;28;20128;-65
2023/03/26 00:53:14;;;;;;;1.77;1.27;;;10.10;99.90;;;;;;5038131;28;20033;-65
2023/03/26 00:55:45;;;;;;;3.13;1.10;;;10.00;99.90;;;;;;5042032;28;20755;-65
2023/03/26 00:58:12;;;;;;;2.25;1.27;;;10.10;99.90;;;;;;5042209;28;20044;-65
2023/03/26 01:00:47;;;;;;;4.32;1.45;;;10.10;99.90;;;;;;5046840;28;20033;-65
2023/03/26 01:03:14;;;;;;;3.65;1.52;;;10.10;99.90;;;;;;5037507;28;20041;-65
2023/03/26 01:05:51;;;;;;;2.90;1.23;;;10.10;99.90;;;;;;5036851;28;20032;-65
2023/03/26 01:08:32;;;;;;;1.75;1.30;;;10.20;99.90;;;;;;5038974;28;20769;-66
2023/03/26 01:11:05;;;;;;;2.20;1.80;;;10.20;99.90;;;;;;5041023;28;20098;-66
2023/03/26 01:13:36;;;;;;;3.17;1.35;;;10.20;99.90;;;;;;5042195;28;20094;-66
2023/03/26 01:16:08;;;;;;;2.78;1.73;;;10.00;99.90;;;;;;5046824;28;20032;-65
2023/03/26 01:18:39;;;;;;;2.75;1.45;;;9.80;99.90;;;;;;5045980;28;20033;-66
2023/03/26 01:21:08;;;;;;;2.58;1.45;;;9.70;99.90;;;;;;5043460;28;20025;-66
2023/03/26 01:23:40;;;;;;;4.22;1.77;;;9.80;99.90;;;;;;5042528;28;20077;-66
2023/03/26 01:26:23;;;;;;;4.40;1.88;;;9.60;99.90;;;;;;5044840;28;20032;-66
2023/03/26 01:28:53;;;;;;;3.88;1.83;;;9.70;99.90;;;;;;5039099;28;20025;-66
2023/03/26 01:31:24;;;;;;;4.60;1.80;;;9.60;99.90;;;;;;5035837;28;20036;-65
2023/03/26 01:34:19;;;;;;;2.90;1.50;;;9.60;99.90;;;;;;5040411;28;20026;-65
2023/03/26 01:36:56;;;;;;;7.15;1.70;;;9.60;99.90;;;;;;5035299;28;20508;-65
2023/03/26 01:39:37;;;;;;;8.90;2.42;;;9.50;99.90;;;;;;5042058;28;20032;-65
2023/03/26 01:42:15;;;;;;;4.32;1.95;;;9.50;99.90;;;;;;5035686;28;20056;-65
2023/03/26 01:44:50;;;;;;;5.25;2.33;;;9.50;99.90;;;;;;5040929;28;20497;-65
2023/03/26 01:47:17;;;;;;;3.83;1.95;;;9.30;99.90;;;;;;5040743;28;20061;-66
2023/03/26 01:49:42;;;;;;;2.97;1.80;;;9.40;99.90;;;;;;5032499;28;20033;-65
2023/03/26 01:52:23;;;;;;;4.47;1.80;;;9.40;99.90;;;;;;5042103;28;20397;-65
2023/03/26 01:54:50;;;;;;;2.75;1.70;;;9.20;99.90;;;;;;5030044;28;20071;-64
2023/03/26 01:57:49;;;;;;;2.42;1.70;;;9.10;99.90;;;;;;5040990;28;20913;-64
2023/03/26 02:00:30;;;;;;;3.08;1.80;;;9.20;99.90;;;;;;5041571;28;20032;-65
2023/03/26 02:02:56;;;;;;;5.63;2.58;;;9.30;99.90;;;;;;5036531;28;20103;-64
2023/03/26 02:05:25;;;;;;;3.28;1.98;;;9.40;99.90;;;;;;5037814;28;20065;-64
2023/03/26 02:08:03;;;;;;;3.03;1.70;;;9.50;99.90;;;;;;5038659;28;20024;-65
2023/03/26 02:10:35;;;;;;;3.70;1.98;;;9.60;99.90;;;;;;5038358;28;20029;-64
2023/03/26 02:13:02;;;;;;;5.13;2.30;;;9.60;99.90;;;;;;5035890;28;20025;-64
2023/03/26 02:15:27;;;;;;;4.15;1.67;;;9.60;99.90;;;;;;5037788;28;20040;-64
2023/03/26 02:17:53;;;;;;;4.38;1.70;;;9.60;99.90;;;;;;5042430;28;20098;-65
2023/03/26 02:20:20;;;;;;;3.78;1.70;;;9.60;99.90;;;;;;5040410;28;20021;-64
2023/03/26 02:22:46;;;;;;;3.00;1.50;;;9.50;99.90;;;;;;5053038;28;20120;-65
2023/03/26 02:25:18;;;;;;;3.13;1.75;;;9.50;99.90;;;;;;5034562;28;20052;-64
2023/03/26 02:27:45;;;;;;;2.00;1.48;;;9.60;99.90;;;;;;5035670;28;20812;-64
2023/03/26 02:30:32;;;;;;;1.50;1.17;;;9.60;99.90;;;;;;5036091;28;20041;-64
2023/03/26 02:32:59;;;;;;;3.72;1.38;;;9.60;99.90;;;;;;5029082;28;20366;-65
2023/03/26 02:35:29;;;;;;;2.95;1.17;;;9.60;99.90;;;;;;5037623;28;20175;-64
2023/03/26 02:37:58;;;;;;;1.45;1.35;;;9.70;99.90;;;;;;5034488;28;20143;-64
2023/03/26 02:40:24;;;;;;;3.35;1.00;;;9.70;99.90;;;;;;5037007;28;20556;-64
2023/03/26 02:42:51;;;;;;;3.10;1.30;;;9.70;99.90;;;;;;5038874;28;20062;-64
2023/03/26 02:45:16;;;;;;;4.55;1.17;;;9.80;99.90;;;;;;5038800;28;20033;-65
2023/03/26 02:48:15;;;;;;;2.13;1.17;;;9.80;99.90;;;;;;5016069;28;20045;-64
2023/03/26 02:50:53;;;;;;;1.60;1.07;;;9.80;99.90;;;;;;5036825;28;20033;-64
2023/03/26 02:53:38;;;;;;;3.65;1.48;;;9.80;99.90;;;;;;5030002;28;20369;-64
2023/03/26 02:56:23;;;;;;;;;;;9.80;99.90;;;;;;5039442;28;20037;-64
2023/03/26 02:59:05;;;;;;;3.67;1.45;;;9.80;99.90;;;;;;5033276;28;20717;-64
2023/03/26 03:01:33;;;;;;;5.00;1.75;;;9.80;99.90;;;;;;5017642;28;20033;-64
2023/03/26 03:04:02;;;;;;;4.38;1.80;;;9.80;99.90;;;;;;5038060;28;20032;-64
2023/03/26 03:06:37;;;;;;;5.78;1.77;;;9.80;99.90;;;;;;5032802;28;20122;-64
2023/03/26 03:09:07;;;;;;;3.08;1.48;;;9.80;99.90;;;;;;5052766;28;20057;-64
2023/03/26 03:11:37;;;;;;;2.47;1.48;;;9.70;99.90;;;;;;5039366;28;20102;-64
2023/03/26 03:14:04;;;;;;;3.17;1.30;;;9.70;99.90;;;;;;5033562;28;20139;-64
2023/03/26 03:16:31;;;;;;;2.60;1.40;;;9.70;99.90;;;;;;5032139;28;20037;-64
2023/03/26 03:19:09;;;;;;;4.43;1.05;;;9.80;99.90;;;;;;5036515;28;20397;-64
2023/03/26 03:21:37;;;;;;;2.40;0.90;;;9.80;99.90;;;;;;5037773;28;20071;-64
2023/03/26 03:24:03;;;;;;;3.72;0.90;;;9.70;99.90;;;;;;5035495;28;20108;-65
2023/03/26 03:26:35;;;;;;;1.02;0.90;;;9.70;99.90;;;;;;5035510;28;20056;-65
2023/03/26 03:29:21;;;;;;;2.58;0.63;;;9.60;99.90;;;;;;5041369;28;20043;-65
2023/03/26 03:31:47;;;;;;;1.33;0.80;;;9.60;99.90;;;;;;5041189;28;20039;-65
2023/03/26 03:34:32;;;;;;;0.93;0.75;;;9.70;99.90;;;;;;5041492;28;20055;-65
2023/03/26 03:36:58;;;;;;;1.83;0.80;;;9.70;99.90;;;;;;5041988;28;20029;-65
2023/03/26 03:39:37;;;;;;;1.52;0.75;;;9.70;99.90;;;;;;5038897;28;20142;-65
2023/03/26 03:42:03;;;;;;;1.85;0.80;;;9.70;99.90;;;;;;5039182;28;20075;-64
2023/03/26 03:44:30;;;;;;;3.55;1.00;;;9.70;99.90;;;;;;5032189;28;20623;-65
2023/03/26 03:46:56;;;;;;;1.98;1.00;;;9.70;99.90;;;;;;5030337;28;20167;-65
2023/03/26 03:49:22;;;;;;;2.88;1.08;;;9.60;99.90;;;;;;5037233;28;20025;-64
2023/03/26 03:51:48;;;;;;;3.90;0.98;;;9.60;99.90;;;;;;5029619;28;20106;-64
2023/03/26 03:54:27;;;;;;;3.70;1.00;;;9.60;99.90;;;;;;5029874;28;20059;-65
2023/03/26 03:57:14;;;;;;;3.28;1.27;;;9.50;99.90;;;;;;5027941;28;20046;-64
2023/03/26 03:59:57;;;;;;;3.28;1.17;;;9.50;99.90;;;;;;5036596;28;20025;-64
2023/03/26 04:02:28;;;;;;;3.25;1.00;;;9.50;99.90;;;;;;5037850;28;20397;-65
2023/03/26 04:04:58;;;;;;;3.03;1.13;;;9.40;99.90;;;;;;5037529;28;20071;-64
2023/03/26 04:07:25;;;;;;;1.92;1.10;;;9.30;99.90;;;;;;5027894;28;20505;-65
2023/03/26 04:10:22;;;;;;;2.50;1.38;;;9.30;99.90;;;;;;5033828;28;20577;-65
2023/03/26 04:13:20;;;;;;;2.92;1.40;;;9.30;99.90;;;;;;5005334;28;20036;-65
2023/03/26 04:16:07;;;;;;;4.63;1.20;;;9.30;99.90;;;;;;5032923;28;20041;-64
2023/03/26 04:18:36;;;;;;;2.60;1.20;;;9.40;99.90;;;;;;5032401;28;20480;-65
2023/03/26 04:21:07;;;;;;;7.82;1.60;;;9.40;99.90;;;;;;5033075;28;20039;-64
2023/03/26 04:23:34;;;;;;;4.32;1.35;;;9.50;99.90;;;;;;5037551;28;20690;-65
2023/03/26 04:26:17;;;;;;;2.60;1.10;;;9.50;99.90;;;;;;5027936;28;20762;-64
2023/03/26 04:29:04;;;;;;;1.73;1.30;;;9.50;99.90;;;;;;5038760;28;20029;-64
2023/03/26 04:31:32;;;;;;;2.72;1.20;;;9.60;99.90;;;;;;5034412;28;20025;-65
2023/03/26 04:34:06;;;;;;;3.03;1.20;;;9.60;99.90;;;;;;5040438;28;20133;-64
2023/03/26 04:36:39;;;;;;;3.08;1.20;;;9.70;99.90;;;;;;5029990;28;20635;-64
2023/03/26 04:39:05;;;;;;;2.88;1.10;;;9.70;99.90;;;;;;5035181;28;20055;-64
2023/03/26 04:41:56;;;;;;;5.20;0.93;;;9.70;99.90;;;;;;5006720;28;20040;-64
2023/03/26 04:44:24;;;;;;;4.40;1.35;;;9.70;99.90;;;;;;5036433;28;20040;-64
2023/03/26 04:46:56;;;;;;;2.40;1.30;;;9.70;99.90;;;;;;5034886;28;20025;-64
2023/03/26 04:49:29;;;;;;;3.25;1.30;;;9.70;99.90;;;;;;5027935;28;20025;-64
2023/03/26 04:51:55;;;;;;;3.83;1.35;;;9.70;99.90;;;;;;5035393;28;20481;-64
2023/03/26 04:54:43;;;;;;;2.88;1.40;;;9.60;99.90;;;;;;5038318;28;20044;-64
2023/03/26 04:57:33;;;;;;;2.88;1.50;;;9.60;99.90;;;;;;5029083;28;20693;-64
2023/03/26 05:00:13;;;;;;;7.35;1.60;;;9.60;99.90;;;;;;5052480;28;20141;-64
2023/03/26 05:02:40;;;;;;;6.18;1.50;;;9.50;99.90;;;;;;5033034;28;20124;-64
2023/03/26 05:05:07;;;;;;;4.20;1.50;;;9.50;99.90;;;;;;5035022;28;20033;-64
2023/03/26 05:07:34;;;;;;;2.25;1.40;;;9.50;99.90;;;;;;5036466;28;20033;-64
2023/03/26 05:10:04;;;;;;;7.13;1.40;;;9.50;99.90;;;;;;5037865;28;20147;-64
2023/03/26 05:12:34;;;;;;;1.73;1.30;;;9.50;99.90;;;;;;5032670;28;20773;-64
2023/03/26 05:15:08;;;;;;;3.95;1.23;;;9.60;99.90;;;;;;5029900;28;20067;-66
2023/03/26 05:18:00;;;;;;;4.75;1.48;;;9.60;99.90;;;;;;5016305;28;20069;-64
2023/03/26 05:20:42;;;;;;;4.47;1.75;;;9.70;99.90;;;;;;5038755;28;20033;-64
2023/03/26 05:23:09;;;;;;;4.45;1.63;;;9.70;99.90;;;;;;5039954;28;20032;-64
2023/03/26 05:25:38;;;;;;;3.60;1.38;;;9.70;99.90;;;;;;5037912;28;20036;-64
2023/03/26 05:28:12;;;;;;;4.20;1.40;;;9.70;99.90;;;;;;5031670;28;20026;-64
2023/03/26 05:30:46;;;;;;;4.95;1.52;;;9.70;99.90;;;;;;5041092;28;20149;-65
2023/03/26 05:33:12;;;;;;;5.93;1.30;;;9.70;99.90;;;;;;5038822;28;20489;-65
2023/03/26 05:35:58;;;;;;;4.40;1.10;;;9.70;99.90;;;;;;5040480;28;20032;-65
2023/03/26 05:38:24;;;;;;;5.45;1.50;;;9.80;99.90;;;;;;5040188;28;20047;-64
2023/03/26 05:40:50;;;;;;;6.00;1.27;;;9.80;99.90;;;;;;5036182;28;20028;-64
2023/03/26 05:43:19;;;;;;;6.95;1.15;;;9.80;99.90;;;;;;5035018;28;20031;-63
2023/03/26 05:45:49;;;;;;;3.08;1.17;;;9.80;99.90;;;;;;5036428;28;20114;-64
2023/03/26 05:48:21;;;;;;;3.05;1.13;;;9.90;99.90;;;;;;5037526;28;20032;-64
2023/03/26 05:50:51;;;;;;;4.10;1.38;;;9.90;99.90;;;;;;5035984;28;20029;-63
2023/03/26 05:53:19;;;;;;;4.47;1.20;;;9.90;99.90;;;;;;5050296;28;20030;-64
2023/03/26 05:55:49;;;;;;;3.22;1.20;;;9.90;99.90;;;;;;5039200;28;20045;-64
2023/03/26 05:58:34;;;;;;;3.15;1.20;;;9.90;99.90;;;;;;5041250;28;20048;-63
2023/03/26 06:01:19;;;;;;;4.75;1.60;;;10.00;99.90;;;;;;5032345;28;20106;-64
2023/03/26 06:04:04;;;;;;;4.03;1.13;;;10.00;99.90;;;;;;5035805;28;20056;-63
2023/03/26 06:06:35;;;;;;;4.00;1.15;;;10.00;99.90;;;;;;5040038;28;20039;-64
2023/03/26 06:09:03;;;;;;;3.90;1.30;;;9.90;99.90;;;;;;5039144;28;20021;-63
2023/03/26 06:11:30;;;;;;;2.60;1.00;;;10.00;99.90;;;;;;5031221;28;20063;-63
2023/03/26 06:13:56;;;;;;;6.13;1.38;;;10.00;99.90;;;;;;5032207;28;20037;-63
2023/03/26 06:16:22;;;;;;;5.63;0.95;;;9.90;99.90;;;;;;5038102;28;20065;-63
2023/03/26 06:18:55;;;;;;;0.88;0.85;;;9.80;99.90;;;;;;5052541;28;20028;-63
2023/03/26 06:21:30;;;;;;;2.72;0.77;;;9.80;99.90;;;;;;5038821;28;20029;-63
2023/03/26 06:24:02;;;;;;;3.58;1.20;;;9.80;99.90;;;;;;5043882;28;20136;-63
2023/03/26 06:26:30;;;;;;;5.10;1.38;;;9.80;99.90;;;;;;5041115;28;20405;-65
2023/03/26 06:29:17;;;;;;;;;;;9.90;99.90;;;;;;5035369;28;20159;-66
2023/03/26 06:32:09;;;;;;;3.60;0.80;;;9.90;99.90;;;;;;5035814;28;19936;-65
2023/03/26 06:34:41;;;;;;;0.80;0.70;;;9.90;99.90;;;;;;5032231;28;20033;-65
2023/03/26 06:37:07;;;;;;;2.40;0.60;;;9.90;99.90;;;;;;5034579;28;20029;-65
2023/03/26 06:39:34;;;;;;;3.65;1.30;;;9.90;99.90;;;;;;5031667;28;20786;-66
2023/03/26 06:42:11;;;;;;;2.15;1.17;;;10.00;99.90;;;;;;5037667;28;20048;-63
2023/03/26 06:44:57;;;;;;;2.42;0.90;;;10.00;99.90;;;;;;4996906;28;20476;-65
2023/03/26 06:47:41;;;;;;;3.17;1.30;;;10.00;99.90;;;;;;5039792;28;20087;-64
2023/03/26 06:50:40;;;;;;;2.35;1.23;;;10.10;99.90;;;;;;5019657;28;20033;-63
2023/03/26 06:53:11;;;;;;;3.67;1.40;;;10.10;99.90;;;;;;5032916;28;20133;-65
2023/03/26 06:56:02;;;;;;;1.63;0.88;;;10.20;99.90;;;;;;5035240;28;20033;-66
2023/03/26 06:58:56;;;;;;;0.75;0.60;;;10.20;99.90;;;;;;5038763;28;20041;-65
2023/03/26 07:01:40;;;;;;;4.15;1.08;;;10.20;99.90;;;;;;5035886;28;20484;-63
2023/03/26 07:04:25;;;;;;;3.17;0.93;;;10.30;99.90;;;;;;5039164;28;20055;-63
2023/03/26 07:07:09;;;;;;;4.53;1.98;;;10.40;99.90;;;;;;5032498;28;20067;-63
2023/03/26 07:09:58;;;;;;;8.65;3.55;;;10.50;99.90;;;;;;5030415;28;20033;-65
2023/03/26 07:12:51;;;;;;;12.18;6.32;;;10.70;99.90;;;;;;5035888;28;20027;-64
2023/03/26 07:15:36;;;;;;;3.65;2.33;;;10.60;99.90;;;;;;5034244;28;20059;-64
2023/03/26 07:18:12;;;;;;;30.27;13.60;;;10.60;99.90;;;;;;5029965;28;20033;-65
2023/03/26 07:20:41;;;;;;;22.73;9.20;;;10.70;99.90;;;;;;5032247;28;20698;-66
2023/03/26 07:23:09;;;;;;;26.45;11.55;;;10.70;99.90;;;;;;5029165;28;20061;-64
2023/03/26 07:25:53;;;;;;;46.90;19.20;;;10.70;99.90;;;;;;5040213;28;20055;-65
2023/03/26 07:28:44;;;;;;;7.68;3.22;;;10.70;99.90;;;;;;5039215;28;20057;-62
2023/03/26 07:31:44;;;;;;;5.70;2.78;;;10.70;99.90;;;;;;5008303;28;20505;-66
2023/03/26 07:34:34;;;;;;;18.02;9.20;;;10.70;99.90;;;;;;5043012;28;20302;-66
2023/03/26 07:37:42;;;;;;;7.68;4.05;;;10.60;99.90;;;;;;5031996;28;20064;-66
2023/03/26 07:40:52;;;;;;;6.47;3.35;;;10.40;99.90;;;;;;5034848;28;20041;-68
2023/03/26 07:43:55;;;;;;;4.80;2.28;;;10.30;99.90;;;;;;5037856;28;20047;-66
2023/03/26 07:46:46;;;;;;;8.52;3.42;;;10.30;99.90;;;;;;5031546;28;20502;-67
2023/03/26 07:49:32;;;;;;;10.90;5.07;;;10.40;99.90;;;;;;5042170;28;20083;-66
2023/03/26 07:52:19;;;;;;;7.53;2.28;;;10.40;99.90;;;;;;5035404;28;20056;-67
2023/03/26 07:55:05;;;;;;;11.52;3.78;;;10.50;99.90;;;;;;5037335;28;20024;-66
2023/03/26 07:58:12;;;;;;;4.75;2.20;;;10.70;99.90;;;;;;5041807;28;20044;-67
2023/03/26 08:00:55;;;;;;;7.13;1.90;;;10.80;99.90;;;;;;5039397;28;20170;-66
2023/03/26 08:03:48;;;;;;;4.95;1.50;;;10.70;99.90;;;;;;5032361;28;20047;-66
2023/03/26 08:06:38;;;;;;;5.20;1.33;;;10.60;99.90;;;;;;5038257;28;20075;-66
2023/03/26 08:09:27;;;;;;;4.75;1.40;;;10.60;99.90;;;;;;5032600;28;20049;-67
2023/03/26 08:12:21;;;;;;;7.28;1.90;;;10.60;99.90;;;;;;5031235;28;20036;-66
2023/03/26 08:15:04;;;;;;;7.38;1.33;;;10.80;99.90;;;;;;5036213;28;20471;-68
2023/03/26 08:17:41;;;;;;;4.95;1.05;;;10.90;99.90;;;;;;5036599;28;20025;-67
2023/03/26 08:20:33;;;;;;;4.03;1.80;;;11.00;99.90;;;;;;5031181;28;20029;-67
2023/03/26 08:23:06;;;;;;;5.07;1.13;;;11.10;99.90;;;;;;5035832;28;20533;-68
2023/03/26 08:25:51;;;;;;;5.32;1.60;;;11.20;99.90;;;;;;5038530;28;20048;-68
2023/03/26 08:28:16;;;;;;;6.35;1.58;;;11.30;99.90;;;;;;5034707;28;20751;-68
2023/03/26 08:30:43;;;;;;;7.65;1.45;;;11.40;98.80;;;;;;5031461;28;20032;-67
2023/03/26 08:33:15;;;;;;;3.35;0.93;;;11.30;99.40;;;;;;5035828;28;20119;-71
2023/03/26 08:35:41;;;;;;;3.55;0.93;;;11.20;99.40;;;;;;5034257;28;20032;-66
2023/03/26 08:38:12;;;;;;;4.45;1.10;;;11.20;99.30;;;;;;5032210;28;20041;-67
2023/03/26 08:40:47;;;;;;;5.57;1.42;;;11.20;99.90;;;;;;5036761;28;20935;-67
2023/03/26 08:43:38;;;;;;;11.27;4.90;;;11.20;99.00;;;;;;5036435;28;20066;-67
2023/03/26 08:46:18;;;;;;;8.30;3.55;;;11.30;99.30;;;;;;5032325;28;20039;-67
2023/03/26 08:49:29;;;;;;;4.47;3.55;;;11.40;99.00;;;;;;5036855;28;20033;-65
2023/03/26 08:52:00;;;;;;;3.20;1.58;;;11.50;99.20;;;;;;5030426;28;20043;-66
2023/03/26 08:54:35;;;;;;;5.55;1.88;;;11.50;98.10;;;;;;5031768;28;20045;-67
2023/03/26 08:57:18;;;;;;;7.07;1.73;;;11.40;98.00;;;;;;5035526;28;20115;-67
2023/03/26 09:00:26;;;;;;;5.82;2.50;;;11.50;98.70;;;;;;5039550;28;20531;-68
2023/03/26 09:03:04;;;;;;;5.18;3.40;;;11.60;98.50;;;;;;5022038;28;20048;-68
2023/03/26 09:05:50;;;;;;;6.25;2.72;;;11.70;98.70;;;;;;5038101;28;20037;-68
2023/03/26 09:08:28;;;;;;;5.47;1.50;;;11.70;97.50;;;;;;5044739;28;20037;-67
2023/03/26 09:11:11;;;;;;;5.35;1.50;;;11.80;97.80;;;;;;5037195;28;20352;-66
2023/03/26 09:14:04;;;;;;;3.60;0.90;;;11.90;98.10;;;;;;5036966;28;20035;-66
2023/03/26 09:16:45;;;;;;;5.72;1.90;;;12.10;98.00;;;;;;5031977;28;20044;-68
2023/03/26 09:19:46;;;;;;;3.92;1.52;;;12.40;97.20;;;;;;5036607;28;20055;-67
2023/03/26 09:22:24;;;;;;;3.92;1.70;;;12.30;96.90;;;;;;5005228;28;20401;-66
2023/03/26 09:24:58;;;;;;;5.30;1.35;;;12.50;95.70;;;;;;5043263;28;20543;-67
2023/03/26 09:28:02;;;;;;;4.05;1.45;;;12.70;96.10;;;;;;5038466;28;20206;-67
2023/03/26 09:30:46;;;;;;;4.32;1.40;;;13.10;95.90;;;;;;5038376;28;20136;-68
2023/03/26 09:33:24;;;;;;;7.70;1.58;;;13.60;94.80;;;;;;5042182;28;20032;-68
2023/03/26 09:35:52;;;;;;;6.22;1.77;;;13.80;93.40;;;;;;5041958;28;20056;-68
2023/03/26 09:38:39;;;;;;;3.33;0.88;;;14.00;93.60;;;;;;5039157;28;20025;-67
2023/03/26 09:41:23;;;;;;;4.68;1.23;;;14.00;92.50;;;;;;5038962;28;20040;-69
2023/03/26 09:44:22;;;;;;;5.28;1.00;;;14.00;92.30;;;;;;5036133;28;20522;-65
2023/03/26 09:47:13;;;;;;;3.50;1.00;;;13.90;92.00;;;;;;5039910;28;20040;-68
2023/03/26 09:49:52;;;;;;;4.38;1.10;;;13.90;92.70;;;;;;5044540;28;20025;-66
2023/03/26 09:52:31;;;;;;;4.95;1.20;;;13.80;91.30;;;;;;5035457;28;20033;-68
2023/03/26 09:55:19;;;;;;;2.92;1.00;;;13.70;91.90;;;;;;5039833;28;20029;-67
2023/03/26 09:57:52;;;;;;;6.32;1.23;;;13.70;92.00;;;;;;5038749;28;20029;-68
2023/03/26 10:00:37;;;;;;;4.65;1.17;;;13.70;92.90;;;;;;5039253;28;20033;-68
2023/03/26 10:03:12;;;;;;;4.78;0.95;;;13.80;91.80;;;;;;5039384;28;20057;-68
2023/03/26 10:05:53;;;;;;;7.60;1.58;;;13.80;92.10;;;;;;5041348;28;20087;-68
2023/03/26 10:08:46;;;;;;;3.75;1.20;;;13.70;91.40;;;;;;5036371;28;20481;-68
2023/03/26 10:11:22;;;;;;;4.40;1.38;;;13.80;91.90;;;;;;5037571;28;20033;-68
2023/03/26 10:13:59;;;;;;;1.75;0.82;;;14.00;91.90;;;;;;5018603;28;20148;-68
2023/03/26 10:17:03;;;;;;;2.28;0.93;;;14.20;91.40;;;;;;5037910;28;20997;-67
2023/03/26 10:19:41;;;;;;;4.43;1.38;;;14.30;89.60;;;;;;5037552;28;20056;-67
2023/03/26 10:22:18;;;;;;;5.00;1.05;;;14.20;88.70;;;;;;5033392;28;20754;-67
2023/03/26 10:24:53;;;;;;;3.55;0.90;;;14.10;87.50;;;;;;5037690;28;20371;-67
2023/03/26 10:27:30;;;;;;;3.67;0.95;;;13.90;89.60;;;;;;5038098;28;20041;-67
2023/03/26 10:30:02;;;;;;;2.33;1.00;;;13.90;90.20;;;;;;5038282;28;20063;-67
2023/03/26 10:32:52;;;;;;;2.08;0.70;;;13.80;90.40;;;;;;5038431;28;20032;-67
2023/03/26 10:35:31;;;;;;;5.20;1.25;;;13.80;90.50;;;;;;5036596;28;20053;-67
2023/03/26 10:38:14;;;;;;;4.25;0.95;;;13.90;90.30;;;;;;5038232;28;20035;-67
2023/03/26 10:41:03;;;;;;;6.95;1.15;;;13.90;88.50;;;;;;5036264;28;20033;-67
2023/03/26 10:43:52;;;;;;;3.50;0.98;;;13.60;87.20;;;;;;5034783;28;20056;-67
2023/03/26 10:46:48;;;;;;;2.70;0.65;;;13.50;90.80;;;;;;5041480;28;20455;-67
2023/03/26 10:49:39;;;;;;;5.20;0.80;;;13.30;89.30;;;;;;5036019;28;20075;-67
2023/03/26 10:52:17;;;;;;;4.53;0.88;;;13.20;90.80;;;;;;5041041;28;20492;-67
2023/03/26 10:55:13;;;;;;;2.85;1.02;;;13.10;91.30;;;;;;5039458;28;20060;-67
2023/03/26 10:57:53;;;;;;;2.17;1.00;;;13.10;91.50;;;;;;5035070;28;20040;-67
2023/03/26 11:00:24;;;;;;;5.50;1.25;;;13.10;91.90;;;;;;5028593;28;20105;-68
2023/03/26 11:03:05;;;;;;;3.85;1.15;;;13.30;91.90;;;;;;5038729;28;20405;-68
2023/03/26 11:05:49;;;;;;;2.65;0.60;;;13.40;92.00;;;;;;5037622;28;20040;-67
2023/03/26 11:08:39;;;;;;;5.72;0.90;;;13.60;90.70;;;;;;5039264;28;20075;-66
2023/03/26 11:11:17;;;;;;;1.85;0.77;;;13.70;89.20;;;;;;5039740;28;20769;-66
2023/03/26 11:13:52;;;;;;;5.97;2.22;;;13.70;89.50;;;;;;5032785;28;20028;-66
2023/03/26 11:16:42;;;;;;;27.90;10.23;;;13.60;89.10;;;;;;5028729;28;20041;-66
2023/03/26 11:19:15;;;;;;;6.75;3.22;;;13.60;89.40;;;;;;5032673;28;20033;-65
2023/03/26 11:22:26;;;;;;;18.83;4.68;;;13.40;88.50;;;;;;5037503;28;20037;-66
2023/03/26 11:25:11;;;;;;;2.92;0.73;;;13.40;89.00;;;;;;4971570;28;20073;-65
2023/03/26 11:27:45;;;;;;;3.05;1.10;;;13.50;87.60;;;;;;4975165;28;20062;-65
2023/03/26 11:30:47;;;;;;;1.15;1.00;;;13.50;88.00;;;;;;5007899;28;20037;-65
2023/03/26 11:33:19;;;;;;;2.50;0.80;;;13.50;87.90;;;;;;5032845;28;20036;-65
2023/03/26 11:35:49;;;;;;;4.93;0.70;;;13.50;88.60;;;;;;5035062;28;20033;-65
2023/03/26 11:38:23;;;;;;;4.28;1.05;;;13.60;89.70;;;;;;5039098;28;20044;-64
2023/03/26 11:40:52;;;;;;;4.35;0.82;;;13.80;90.40;;;;;;5036688;28;20044;-64
2023/03/26 11:43:51;;;;;;;2.03;1.10;;;14.00;89.80;;;;;;5037735;28;20070;-65
2023/03/26 11:46:20;;;;;;;4.45;1.08;;;14.20;88.30;;;;;;5027391;28;20049;-65
2023/03/26 11:49:02;;;;;;;3.05;0.93;;;14.40;88.70;;;;;;5038183;28;20064;-65
2023/03/26 11:51:40;;;;;;;3.53;0.80;;;14.60;88.20;;;;;;5037668;28;20429;-65
2023/03/26 11:54:06;;;;;;;6.47;1.00;;;14.80;87.00;;;;;;5035592;28;20025;-61
2023/03/26 11:56:37;;;;;;;2.72;0.90;;;14.90;85.40;;;;;;5037806;28;20039;-65
2023/03/26 11:59:16;;;;;;;4.00;0.93;;;15.10;80.70;;;;;;5035489;28;20047;-65
2023/03/26 12:01:58;;;;;;;3.65;1.17;;;15.20;82.40;;;;;;5034516;28;20035;-65
2023/03/26 12:04:35;;;;;;;2.22;0.70;;;15.30;85.30;;;;;;5034010;28;20037;-64
2023/03/26 12:07:19;;;;;;;4.97;1.15;;;15.50;82.50;;;;;;5038014;28;20563;-64
2023/03/26 12:09:55;;;;;;;4.40;1.00;;;15.60;79.00;;;;;;5038640;28;20029;-65
2023/03/26 12:12:24;;;;;;;3.42;1.35;;;15.70;81.10;;;;;;5034926;28;20721;-64
2023/03/26 12:14:50;;;;;;;4.47;1.10;;;15.80;78.90;;;;;;5038173;28;20028;-65
2023/03/26 12:17:34;;;;;;;2.58;0.95;;;15.80;79.60;;;;;;5038243;28;20041;-65
2023/03/26 12:20:21;;;;;;;6.22;0.80;;;15.90;79.50;;;;;;5035221;28;20025;-65
2023/03/26 12:22:47;;;;;;;1.55;0.60;;;15.80;77.30;;;;;;5033219;28;20043;-65
2023/03/26 12:25:14;;;;;;;2.50;0.63;;;15.80;78.00;;;;;;5037519;28;20071;-65
2023/03/26 12:27:56;;;;;;;2.72;0.80;;;15.90;76.90;;;;;;5033330;28;20056;-65
2023/03/26 12:30:26;;;;;;;3.22;0.50;;;15.90;78.40;;;;;;5034658;28;20808;-65
2023/03/26 12:32:59;;;;;;;3.83;0.50;;;15.80;75.80;;;;;;5034028;28;20598;-64
2023/03/26 12:35:28;;;;;;;1.85;0.70;;;15.80;76.10;;;;;;5038025;28;20056;-65
2023/03/26 12:38:34;;;;;;;4.00;0.63;;;15.70;75.90;;;;;;5041798;28;20484;-65
2023/03/26 12:41:05;;;;;;;4.68;0.80;;;15.60;74.90;;;;;;4971062;28;20092;-64
2023/03/26 12:43:48;;;;;;;1.23;0.60;;;15.50;75.70;;;;;;5045203;28;20516;-65
2023/03/26 12:46:28;;;;;;;1.63;0.65;;;15.30;76.30;;;;;;5053670;28;20047;-65
2023/03/26 12:48:55;;;;;;;1.85;0.50;;;15.20;78.20;;;;;;5056362;28;20136;-64
2023/03/26 12:51:46;;;;;;;3.67;1.08;;;15.10;76.90;;;;;;5060191;28;20389;-63
2023/03/26 12:54:34;;;;;;;3.05;0.77;;;15.10;76.50;;;;;;5056788;28;20544;-68
2023/03/26 12:57:31;;;;;;;3.17;0.90;;;15.20;78.10;;;;;;5039914;28;20034;-64
2023/03/26 13:00:20;;;;;;;3.33;0.90;;;15.30;78.20;;;;;;5051529;28;20081;-65
2023/03/26 13:03:23;;;;;;;3.30;0.82;;;15.40;77.30;;;;;;5058622;28;20519;-65
2023/03/26 13:06:26;;;;;;;1.73;0.65;;;15.50;76.30;;;;;;5057216;28;20024;-64
2023/03/26 13:09:08;;;;;;;5.00;1.33;;;15.60;76.80;;;;;;5060379;28;20017;-65
2023/03/26 13:11:53;;;;;;;3.10;0.93;;;15.60;76.70;;;;;;5059157;28;20166;-65
2023/03/26 13:14:30;;;;;;;4.93;1.60;;;15.70;76.20;;;;;;5055582;28;20040;-65
2023/03/26 13:17:02;;;;;;;1.65;0.65;;;15.60;74.50;;;;;;5059272;28;21013;-65
2023/03/26 13:20:14;;;;;;;1.90;1.00;;;15.40;75.70;;;;;;5060198;28;20028;-64
2023/03/26 13:23:19;;;;;;;6.18;2.38;;;15.40;78.10;;;;;;5052388;28;20493;-65
2023/03/26 13:25:48;;;;;;;2.13;0.93;;;15.40;78.30;;;;;;5055439;28;20024;-64
2023/03/26 13:28:25;;;;;;;4.00;0.77;;;15.40;77.60;;;;;;5057241;28;20036;-65
2023/03/26 13:30:57;;;;;;;4.50;0.93;;;15.50;78.30;;;;;;5057561;28;20021;-65
2023/03/26 13:33:45;;;;;;;3.65;0.88;;;15.50;79.20;;;;;;5058444;28;20052;-65
2023/03/26 13:36:25;;;;;;;1.55;0.98;;;15.50;76.40;;;;;;5055137;28;20032;-65
2023/03/26 13:39:15;;;;;;;2.58;0.80;;;15.50;77.50;;;;;;5060916;28;20050;-65
2023/03/26 13:42:02;;;;;;;2.92;1.10;;;15.40;77.10;;;;;;5056948;28;20032;-65
2023/03/26 13:44:43;;;;;;;2.75;1.17;;;15.20;77.50;;;;;;5058077;28;20036;-66
2023/03/26 13:47:17;;;;;;;2.90;1.48;;;15.20;79.30;;;;;;5059532;28;20143;-66